Redvers, Canada
Current Conditions -  °F | °C
As of 1:00 AM on Sunday 26 Oct 2014 (Local Time) from CYEN Reporting Station
Broken Clouds Broken Clouds  
Wind Chill: 33°   Ceiling: 18000
Heat Index: 41°   Visibility: 15mi
Dew Point: 32°   Wind: 14mph
Humidity: 70%   Direction: 100°E
Pressure: 29.73"   Gusts: NA
Location:  49.57°N, 101.7°W
Report Text: CYEN 260700Z 10012KT 15SM BKN180 05/M00 A2973 RMK AC5 PRESFRSLP082
Loading
Personal Weather Stations






























Interactive Weather Map
Tropical Storm Tracking
New forecast layout! Learn more

10-Day Weather Forecast

Advertisements
Track Severe Weather on mobile